Time;durP1;ratioP1;P1;durP2;ratioP2;P2;SDS_P1;SDS_P2;PMS_P1;PMS_P2;Temp;Humidity;BMP_temperature;BMP_pressure;BME280_temperature;BME280_humidity;BME280_pressure;Samples;Min_cycle;Max_cycle;Signal;HPM_P1;HPM_P2
2022/08/24 00:00:18;;;;;;;0.40;0.40;;;;;;;;;;1879651;76;26221;-46
2022/08/24 00:02:45;;;;;;;0.50;0.50;;;;;;;;;;1874396;76;26383;-45
2022/08/24 00:05:13;;;;;;;0.50;0.50;;;;;;;;;;1875047;76;26304;-45
2022/08/24 00:07:41;;;;;;;0.40;0.40;;;;;;;;;;1877123;76;26296;-44
2022/08/24 00:10:09;;;;;;;1.17;0.42;;;;;;;;;;1878098;76;26282;-45
2022/08/24 00:12:37;;;;;;;1.90;0.40;;;;;;;;;;1872902;76;26880;-46
2022/08/24 00:15:05;;;;;;;0.50;0.50;;;;;;;;;;1869838;75;27252;-46
2022/08/24 00:17:33;;;;;;;0.40;0.40;;;;;;;;;;1869922;76;27483;-45
2022/08/24 00:20:01;;;;;;;0.30;0.30;;;;;;;;;;1867475;76;26237;-47
2022/08/24 00:22:28;;;;;;;0.40;0.40;;;;;;;;;;1860194;76;26355;-45
2022/08/24 00:24:56;;;;;;;0.40;0.40;;;;;;;;;;1852275;76;26338;-45
2022/08/24 00:27:23;;;;;;;0.40;0.40;;;;;;;;;;1849350;76;26310;-45
2022/08/24 00:29:50;;;;;;;0.40;0.40;;;;;;;;;;1871612;76;26668;-46
2022/08/24 00:32:18;;;;;;;0.55;0.47;;;;;;;;;;1872881;76;26324;-45
2022/08/24 00:34:45;;;;;;;1.35;0.35;;;;;;;;;;1861747;76;26317;-45
2022/08/24 00:37:12;;;;;;;0.40;0.40;;;;;;;;;;1876129;76;26241;-45
2022/08/24 00:39:40;;;;;;;0.50;0.50;;;;;;;;;;1847351;76;26402;-48
2022/08/24 00:42:07;;;;;;;0.40;0.40;;;;;;;;;;1838031;77;26287;-46
2022/08/24 00:44:34;;;;;;;1.30;0.40;;;;;;;;;;1866514;76;26185;-47
2022/08/24 00:47:03;;;;;;;0.30;0.30;;;;;;;;;;1866448;76;26193;-46
2022/08/24 00:49:35;;;;;;;0.30;0.30;;;;;;;;;;1863872;76;26286;-47
2022/08/24 00:52:04;;;;;;;0.40;0.40;;;;;;;;;;1869965;76;26334;-46
2022/08/24 00:54:32;;;;;;;0.30;0.30;;;;;;;;;;1874481;76;26330;-48
2022/08/24 00:57:01;;;;;;;0.50;0.50;;;;;;;;;;1878322;76;26241;-45
2022/08/24 00:59:30;;;;;;;0.40;0.40;;;;;;;;;;1863849;76;26264;-49
2022/08/24 01:01:58;;;;;;;0.30;0.30;;;;;;;;;;1864914;76;26201;-45
2022/08/24 01:04:27;;;;;;;0.47;0.47;;;;;;;;;;1842785;76;26318;-49
2022/08/24 01:06:56;;;;;;;0.35;0.35;;;;;;;;;;1862698;76;26280;-47
2022/08/24 01:09:23;;;;;;;0.60;0.47;;;;;;;;;;1849064;76;26335;-49
2022/08/24 01:11:51;;;;;;;0.55;0.40;;;;;;;;;;1840586;76;26346;-49
2022/08/24 01:14:19;;;;;;;0.30;0.30;;;;;;;;;;1830433;76;27080;-47
2022/08/24 01:19:33;;;;;;;0.50;0.50;;;;;;;;;;1839028;76;26351;-48
2022/08/24 01:22:05;;;;;;;0.30;0.30;;;;;;;;;;1863975;76;27091;-48
2022/08/24 01:24:34;;;;;;;0.70;0.40;;;;;;;;;;1877182;76;26276;-47
2022/08/24 01:27:02;;;;;;;0.33;0.33;;;;;;;;;;1856568;76;26259;-47
2022/08/24 01:29:32;;;;;;;0.50;0.50;;;;;;;;;;1841375;76;26267;-45
2022/08/24 01:31:59;;;;;;;0.40;0.40;;;;;;;;;;1838637;76;26262;-44
2022/08/24 01:34:27;;;;;;;0.50;0.50;;;;;;;;;;1848911;76;26272;-43
2022/08/24 01:36:55;;;;;;;0.40;0.40;;;;;;;;;;1844181;76;26353;-45
2022/08/24 01:39:27;;;;;;;0.40;0.40;;;;;;;;;;1840650;76;26349;-47
2022/08/24 01:41:55;;;;;;;0.60;0.60;;;;;;;;;;1821373;77;26782;-46
2022/08/24 01:44:23;;;;;;;0.30;0.30;;;;;;;;;;1834842;76;26288;-46
2022/08/24 01:46:55;;;;;;;0.40;0.40;;;;;;;;;;1843217;77;26312;-46
2022/08/24 01:49:24;;;;;;;0.40;0.33;;;;;;;;;;1845718;77;26303;-45
2022/08/24 01:51:51;;;;;;;0.30;0.30;;;;;;;;;;1836110;77;26306;-46
2022/08/24 01:54:19;;;;;;;0.47;0.47;;;;;;;;;;1846333;77;27393;-46
2022/08/24 01:56:46;;;;;;;0.50;0.50;;;;;;;;;;1844350;77;26359;-46
2022/08/24 01:59:13;;;;;;;0.37;0.37;;;;;;;;;;1845767;77;26759;-47
2022/08/24 02:01:42;;;;;;;0.50;0.50;;;;;;;;;;1842131;76;27234;-45
2022/08/24 02:04:10;;;;;;;0.33;0.33;;;;;;;;;;1842324;76;26575;-49
2022/08/24 02:06:38;;;;;;;0.82;0.40;;;;;;;;;;1844290;77;26291;-50
2022/08/24 02:09:05;;;;;;;0.40;0.40;;;;;;;;;;1843834;77;26673;-45
2022/08/24 02:11:32;;;;;;;0.37;0.37;;;;;;;;;;1845217;77;26847;-45
2022/08/24 02:14:00;;;;;;;0.30;0.30;;;;;;;;;;1843994;77;26245;-47
2022/08/24 02:16:27;;;;;;;0.90;0.60;;;;;;;;;;1842269;76;26781;-46
2022/08/24 02:18:55;;;;;;;0.50;0.50;;;;;;;;;;1834377;77;26205;-45
2022/08/24 02:21:22;;;;;;;0.40;0.40;;;;;;;;;;1845376;77;26334;-46
2022/08/24 02:23:49;;;;;;;0.50;0.50;;;;;;;;;;1836495;77;26823;-47
2022/08/24 02:26:17;;;;;;;0.40;0.40;;;;;;;;;;1835983;76;26708;-46
2022/08/24 02:28:44;;;;;;;0.53;0.53;;;;;;;;;;1842186;76;26334;-45
2022/08/24 02:31:13;;;;;;;0.30;0.30;;;;;;;;;;1839477;76;26282;-47
2022/08/24 02:33:41;;;;;;;0.78;0.42;;;;;;;;;;1829047;76;26281;-46
2022/08/24 02:36:09;;;;;;;0.40;0.40;;;;;;;;;;1830902;76;26732;-45
2022/08/24 02:38:36;;;;;;;0.50;0.50;;;;;;;;;;1835400;76;26256;-46
2022/08/24 02:41:04;;;;;;;0.40;0.40;;;;;;;;;;1829699;76;26749;-46
2022/08/24 02:43:32;;;;;;;0.40;0.40;;;;;;;;;;1841123;77;26347;-48
2022/08/24 02:45:59;;;;;;;0.40;0.40;;;;;;;;;;1822386;77;26337;-50
2022/08/24 02:48:26;;;;;;;2.67;0.47;;;;;;;;;;1835467;76;26256;-48
2022/08/24 02:50:54;;;;;;;0.62;0.33;;;;;;;;;;1829524;77;26260;-45
2022/08/24 02:53:21;;;;;;;0.55;0.55;;;;;;;;;;1827052;77;26356;-43
2022/08/24 02:55:48;;;;;;;0.57;0.40;;;;;;;;;;1837467;77;26256;-46
2022/08/24 02:58:17;;;;;;;0.82;0.50;;;;;;;;;;1838188;77;26244;-45
2022/08/24 03:00:45;;;;;;;0.50;0.50;;;;;;;;;;1835969;77;26621;-45
2022/08/24 03:03:13;;;;;;;0.50;0.50;;;;;;;;;;1831843;77;26252;-45
2022/08/24 03:05:40;;;;;;;0.30;0.30;;;;;;;;;;1860859;76;27397;-48
2022/08/24 03:08:07;;;;;;;0.40;0.40;;;;;;;;;;1874046;76;27448;-47
2022/08/24 03:10:35;;;;;;;0.50;0.50;;;;;;;;;;1867645;76;27537;-46
2022/08/24 03:13:03;;;;;;;0.50;0.50;;;;;;;;;;1830520;76;26261;-48
2022/08/24 03:15:30;;;;;;;0.40;0.40;;;;;;;;;;1853494;76;26612;-47
2022/08/24 03:17:57;;;;;;;0.40;0.40;;;;;;;;;;1859731;75;26252;-46
2022/08/24 03:20:25;;;;;;;0.30;0.30;;;;;;;;;;1852658;76;26358;-45
2022/08/24 03:22:53;;;;;;;0.50;0.50;;;;;;;;;;1858645;76;26574;-46
2022/08/24 03:25:23;;;;;;;0.98;0.33;;;;;;;;;;1862708;76;26535;-46
2022/08/24 03:27:51;;;;;;;0.47;0.47;;;;;;;;;;1864690;76;26235;-47
2022/08/24 03:30:18;;;;;;;0.40;0.40;;;;;;;;;;1867139;76;26297;-46
2022/08/24 03:32:46;;;;;;;0.42;0.42;;;;;;;;;;1864275;76;26391;-46
2022/08/24 03:35:13;;;;;;;0.30;0.30;;;;;;;;;;1866996;76;26379;-44
2022/08/24 03:37:41;;;;;;;0.30;0.30;;;;;;;;;;1866418;76;27415;-43
2022/08/24 03:40:10;;;;;;;0.60;0.50;;;;;;;;;;1864131;76;26311;-43
2022/08/24 03:42:37;;;;;;;0.40;0.40;;;;;;;;;;1867819;76;26268;-44
2022/08/24 03:45:05;;;;;;;0.30;0.30;;;;;;;;;;1863762;76;26744;-44
2022/08/24 03:47:33;;;;;;;1.65;0.40;;;;;;;;;;1862603;76;26405;-48
2022/08/24 03:50:00;;;;;;;0.68;0.40;;;;;;;;;;1865046;76;26389;-45
2022/08/24 03:52:27;;;;;;;0.30;0.30;;;;;;;;;;1855312;76;26236;-44
2022/08/24 03:54:55;;;;;;;0.40;0.40;;;;;;;;;;1863733;76;26781;-47
2022/08/24 03:57:22;;;;;;;0.60;0.60;;;;;;;;;;1860238;76;26316;-47
2022/08/24 03:59:50;;;;;;;0.40;0.40;;;;;;;;;;1848482;76;26327;-45
2022/08/24 04:02:17;;;;;;;0.53;0.50;;;;;;;;;;1860345;76;26243;-43
2022/08/24 04:04:45;;;;;;;0.40;0.40;;;;;;;;;;1865325;76;27398;-44
2022/08/24 04:07:12;;;;;;;0.30;0.30;;;;;;;;;;1868133;76;26837;-47
2022/08/24 04:09:39;;;;;;;0.37;0.37;;;;;;;;;;1874765;76;26301;-44
2022/08/24 04:12:07;;;;;;;0.40;0.40;;;;;;;;;;1870590;76;26264;-45
2022/08/24 04:14:34;;;;;;;0.55;0.40;;;;;;;;;;1857678;75;26253;-45
2022/08/24 04:17:03;;;;;;;0.50;0.50;;;;;;;;;;1864331;76;26737;-45
2022/08/24 04:19:30;;;;;;;0.30;0.30;;;;;;;;;;1876755;75;26729;-44
2022/08/24 04:21:58;;;;;;;0.50;0.50;;;;;;;;;;1863341;76;26257;-45
2022/08/24 04:24:25;;;;;;;1.65;0.40;;;;;;;;;;1866309;75;26351;-45
2022/08/24 04:26:53;;;;;;;0.40;0.40;;;;;;;;;;1870911;76;26581;-44
2022/08/24 04:29:21;;;;;;;0.50;0.50;;;;;;;;;;1875607;76;26307;-44
2022/08/24 04:31:48;;;;;;;0.40;0.40;;;;;;;;;;1867759;76;26297;-45
2022/08/24 04:34:17;;;;;;;0.50;0.40;;;;;;;;;;1866846;76;26276;-48
2022/08/24 04:36:44;;;;;;;0.40;0.40;;;;;;;;;;1863537;75;26268;-45
2022/08/24 04:39:12;;;;;;;0.40;0.40;;;;;;;;;;1873801;76;26855;-44
2022/08/24 04:41:41;;;;;;;0.40;0.40;;;;;;;;;;1858402;76;26322;-49
2022/08/24 04:44:08;;;;;;;2.05;0.53;;;;;;;;;;1853605;76;26551;-44
2022/08/24 04:46:36;;;;;;;0.50;0.50;;;;;;;;;;1862892;75;26269;-49
2022/08/24 04:49:03;;;;;;;1.20;0.40;;;;;;;;;;1862317;75;26301;-48
2022/08/24 04:51:30;;;;;;;0.30;0.30;;;;;;;;;;1866862;75;26477;-48
2022/08/24 04:53:58;;;;;;;0.42;0.42;;;;;;;;;;1870288;75;26788;-47
2022/08/24 04:56:25;;;;;;;0.40;0.40;;;;;;;;;;1864515;75;26692;-47
2022/08/24 04:58:54;;;;;;;0.40;0.40;;;;;;;;;;1856474;75;26253;-49
2022/08/24 05:01:23;;;;;;;0.40;0.40;;;;;;;;;;1869129;75;26283;-45
2022/08/24 05:03:52;;;;;;;0.50;0.50;;;;;;;;;;1853191;75;26288;-45
2022/08/24 05:06:21;;;;;;;0.90;0.60;;;;;;;;;;1863641;75;26370;-45
2022/08/24 05:08:48;;;;;;;0.33;0.33;;;;;;;;;;1858523;76;27510;-46
2022/08/24 05:11:16;;;;;;;3.58;0.50;;;;;;;;;;1869825;76;26288;-45
2022/08/24 05:13:44;;;;;;;2.37;0.60;;;;;;;;;;1850539;76;26740;-45
2022/08/24 05:16:13;;;;;;;1.37;0.50;;;;;;;;;;1876707;76;26394;-45
2022/08/24 05:18:40;;;;;;;5.03;0.70;;;;;;;;;;1874754;75;26273;-46
2022/08/24 05:21:09;;;;;;;2.80;0.70;;;;;;;;;;1876069;75;26792;-46
2022/08/24 05:23:37;;;;;;;0.98;0.60;;;;;;;;;;1878628;75;26299;-44
2022/08/24 05:26:09;;;;;;;2.77;0.78;;;;;;;;;;1878644;75;26677;-45
2022/08/24 05:28:37;;;;;;;4.28;0.80;;;;;;;;;;1867035;75;26253;-45
2022/08/24 05:31:21;;;;;;;1.37;0.70;;;;;;;;;;1866930;75;26272;-44
2022/08/24 05:33:49;;;;;;;3.35;0.80;;;;;;;;;;1857234;75;26830;-50
2022/08/24 05:36:17;;;;;;;3.87;0.60;;;;;;;;;;1832433;77;26197;-45
2022/08/24 05:38:46;;;;;;;0.95;0.57;;;;;;;;;;1845248;77;26287;-47
2022/08/24 05:41:14;;;;;;;3.70;0.60;;;;;;;;;;1837521;77;26349;-48
2022/08/24 05:43:42;;;;;;;2.17;0.70;;;;;;;;;;1839812;76;26864;-45
2022/08/24 05:46:09;;;;;;;1.82;0.60;;;;;;;;;;1829322;78;26330;-45
2022/08/24 05:48:37;;;;;;;0.72;0.60;;;;;;;;;;1878216;76;26264;-46
2022/08/24 05:51:05;;;;;;;0.62;0.45;;;;;;;;;;1873113;76;26230;-46
2022/08/24 05:53:32;;;;;;;3.92;0.57;;;;;;;;;;1867582;76;26323;-46
2022/08/24 05:56:03;;;;;;;4.42;0.70;;;;;;;;;;1874894;76;26276;-48
2022/08/24 05:58:30;;;;;;;0.50;0.50;;;;;;;;;;1869305;76;26572;-47
2022/08/24 06:00:58;;;;;;;0.60;0.60;;;;;;;;;;1854436;76;26282;-44
2022/08/24 06:03:26;;;;;;;4.12;0.70;;;;;;;;;;1868572;76;26764;-50
2022/08/24 06:05:53;;;;;;;0.60;0.60;;;;;;;;;;1848755;76;26366;-47
2022/08/24 06:08:21;;;;;;;0.57;0.57;;;;;;;;;;1833040;77;26303;-47
2022/08/24 06:10:48;;;;;;;3.52;0.95;;;;;;;;;;1832817;77;26256;-47
2022/08/24 06:13:16;;;;;;;2.25;0.57;;;;;;;;;;1831991;77;26240;-48
2022/08/24 06:15:43;;;;;;;1.55;0.53;;;;;;;;;;1828522;78;26335;-46
2022/08/24 06:18:10;;;;;;;0.70;0.70;;;;;;;;;;1839878;77;26704;-47
2022/08/24 06:20:39;;;;;;;2.50;0.50;;;;;;;;;;1836281;78;26318;-46
2022/08/24 06:23:07;;;;;;;0.75;0.53;;;;;;;;;;1835120;78;26354;-47
2022/08/24 06:28:20;;;;;;;0.93;0.50;;;;;;;;;;1825045;78;26354;-45
2022/08/24 06:30:47;;;;;;;0.85;0.60;;;;;;;;;;1832870;78;26256;-50
2022/08/24 06:33:15;;;;;;;0.65;0.40;;;;;;;;;;1839572;78;26233;-49
2022/08/24 06:35:42;;;;;;;1.00;0.60;;;;;;;;;;1839962;77;26292;-46
2022/08/24 06:38:09;;;;;;;0.50;0.50;;;;;;;;;;1838235;78;26865;-47
2022/08/24 06:40:37;;;;;;;0.75;0.50;;;;;;;;;;1836097;78;26322;-46
2022/08/24 06:43:04;;;;;;;1.15;0.33;;;;;;;;;;1836872;78;26277;-48
2022/08/24 06:45:31;;;;;;;0.40;0.40;;;;;;;;;;1836152;77;26264;-48
2022/08/24 06:47:59;;;;;;;0.88;0.50;;;;;;;;;;1828929;78;26728;-46
2022/08/24 06:50:26;;;;;;;0.50;0.50;;;;;;;;;;1832558;77;26732;-45
2022/08/24 06:52:53;;;;;;;0.40;0.40;;;;;;;;;;1836329;78;26348;-45
2022/08/24 06:55:20;;;;;;;1.02;0.40;;;;;;;;;;1837489;76;26316;-45
2022/08/24 06:57:48;;;;;;;0.50;0.50;;;;;;;;;;1831886;78;26260;-44
2022/08/24 07:00:16;;;;;;;0.45;0.40;;;;;;;;;;1831530;78;27441;-47
2022/08/24 07:02:43;;;;;;;0.40;0.40;;;;;;;;;;1830199;78;26686;-46
2022/08/24 07:05:11;;;;;;;1.80;0.42;;;;;;;;;;1836924;78;26271;-47
2022/08/24 07:07:38;;;;;;;0.40;0.40;;;;;;;;;;1839114;76;26849;-47
2022/08/24 07:10:08;;;;;;;0.40;0.40;;;;;;;;;;1827805;76;26247;-48
2022/08/24 07:12:35;;;;;;;1.10;0.40;;;;;;;;;;1823030;77;26284;-46
2022/08/24 07:15:03;;;;;;;1.25;0.40;;;;;;;;;;1832200;76;27774;-48
2022/08/24 07:17:31;;;;;;;3.10;0.50;;;;;;;;;;1826805;76;26333;-48
2022/08/24 07:19:58;;;;;;;5.67;0.70;;;;;;;;;;1827938;76;26769;-45
2022/08/24 07:22:25;;;;;;;0.40;0.40;;;;;;;;;;1832005;76;27424;-47
2022/08/24 07:24:53;;;;;;;1.87;0.40;;;;;;;;;;1822153;77;26755;-44
2022/08/24 07:27:22;;;;;;;3.05;0.40;;;;;;;;;;1829205;76;26329;-49
2022/08/24 07:29:50;;;;;;;6.85;0.60;;;;;;;;;;1823946;76;26280;-44
2022/08/24 07:32:18;;;;;;;0.40;0.40;;;;;;;;;;1832461;76;26291;-50
2022/08/24 07:34:45;;;;;;;0.47;0.47;;;;;;;;;;1837834;77;26274;-45
2022/08/24 07:37:12;;;;;;;1.35;0.50;;;;;;;;;;1846486;76;26261;-46
2022/08/24 07:39:40;;;;;;;0.85;0.40;;;;;;;;;;1840741;76;26280;-46
2022/08/24 07:42:07;;;;;;;0.85;0.40;;;;;;;;;;1847803;77;26776;-44
2022/08/24 07:44:34;;;;;;;2.92;0.60;;;;;;;;;;1847580;77;26269;-45
2022/08/24 07:47:03;;;;;;;4.37;0.78;;;;;;;;;;1845968;76;26358;-49
2022/08/24 07:49:31;;;;;;;3.30;0.60;;;;;;;;;;1840160;76;26930;-51
2022/08/24 07:51:58;;;;;;;5.97;0.85;;;;;;;;;;1849854;76;26744;-44
2022/08/24 07:54:30;;;;;;;7.12;1.10;;;;;;;;;;1862448;76;26246;-51
2022/08/24 07:56:55;;;;;;;5.47;1.00;;;;;;;;;;1837103;76;26333;-45
2022/08/24 07:59:22;;;;;;;13.28;1.32;;;;;;;;;;1834932;76;26284;-49
2022/08/24 08:01:51;;;;;;;5.80;1.00;;;;;;;;;;1846985;76;26246;-48
2022/08/24 08:04:23;;;;;;;8.95;1.15;;;;;;;;;;1835242;76;26287;-52
2022/08/24 08:06:49;;;;;;;6.25;0.95;;;;;;;;;;1842959;76;26217;-47
2022/08/24 08:09:16;;;;;;;11.38;1.00;;;;;;;;;;1864585;76;27499;-50
2022/08/24 08:11:44;;;;;;;14.93;1.17;;;;;;;;;;1863652;76;26397;-50
2022/08/24 08:14:13;;;;;;;7.83;0.80;;;;;;;;;;1863039;76;26266;-47
2022/08/24 08:16:41;;;;;;;6.72;1.15;;;;;;;;;;1859517;76;26341;-47
2022/08/24 08:19:08;;;;;;;8.78;1.05;;;;;;;;;;1872432;76;26741;-48
2022/08/24 08:24:22;;;;;;;4.75;0.80;;;;;;;;;;1857946;76;26937;-49
2022/08/24 08:26:50;;;;;;;7.37;0.95;;;;;;;;;;1869760;76;26744;-53
2022/08/24 08:29:18;;;;;;;7.28;1.00;;;;;;;;;;1877614;75;26300;-53
2022/08/24 08:31:45;;;;;;;10.50;1.02;;;;;;;;;;1858386;76;26265;-49
2022/08/24 08:34:13;;;;;;;5.33;0.70;;;;;;;;;;1854108;76;26382;-47
2022/08/24 08:36:41;;;;;;;5.20;0.80;;;;;;;;;;1865421;75;26280;-48
2022/08/24 08:39:09;;;;;;;3.90;0.90;;;;;;;;;;1863897;76;26280;-51
2022/08/24 08:41:44;;;;;;;3.15;0.60;;;;;;;;;;1866363;76;26717;-54
2022/08/24 08:44:16;;;;;;;3.42;0.75;;;;;;;;;;1872195;76;26254;-53
2022/08/24 08:47:01;;;;;;;7.67;1.00;;;;;;;;;;1867165;76;26323;-51
2022/08/24 08:49:36;;;;;;;1.75;0.90;;;;;;;;;;1862625;76;26327;-53
2022/08/24 08:52:27;;;;;;;1.95;0.85;;;;;;;;;;1870150;76;26244;-46
2022/08/24 08:54:52;;;;;;;3.25;0.82;;;;;;;;;;1859536;76;26748;-51
2022/08/24 08:57:21;;;;;;;0.95;0.80;;;;;;;;;;1871133;76;26778;-52
2022/08/24 09:00:07;;;;;;;0.80;0.80;;;;;;;;;;1871890;76;26755;-45
2022/08/24 09:02:45;;;;;;;2.05;0.90;;;;;;;;;;1863318;76;27436;-48
2022/08/24 09:05:20;;;;;;;0.70;0.70;;;;;;;;;;1859745;76;26244;-44
2022/08/24 09:07:58;;;;;;;1.72;0.90;;;;;;;;;;1862583;76;26277;-50
2022/08/24 09:10:27;;;;;;;1.98;0.70;;;;;;;;;;1868014;76;26280;-49
2022/08/24 09:13:08;;;;;;;2.47;0.70;;;;;;;;;;1865586;76;26304;-51
2022/08/24 09:15:43;;;;;;;3.45;0.80;;;;;;;;;;1855749;76;26268;-52
2022/08/24 09:18:18;;;;;;;0.60;0.60;;;;;;;;;;1854718;76;26359;-51
2022/08/24 09:20:50;;;;;;;0.70;0.70;;;;;;;;;;1853624;76;27106;-51
2022/08/24 09:23:35;;;;;;;2.52;0.53;;;;;;;;;;1859168;76;26279;-53
2022/08/24 09:26:10;;;;;;;1.35;0.70;;;;;;;;;;1862600;76;26257;-50
2022/08/24 09:28:55;;;;;;;0.50;0.50;;;;;;;;;;1851499;76;26323;-50
2022/08/24 09:31:28;;;;;;;0.50;0.50;;;;;;;;;;1856693;76;26335;-49
2022/08/24 09:34:09;;;;;;;0.65;0.60;;;;;;;;;;1859037;76;26321;-52
2022/08/24 09:36:40;;;;;;;1.05;0.60;;;;;;;;;;1860756;76;26257;-52
2022/08/24 09:39:13;;;;;;;0.70;0.70;;;;;;;;;;1860478;76;26406;-53
2022/08/24 09:42:00;;;;;;;2.17;0.82;;;;;;;;;;1850555;76;26289;-45
2022/08/24 09:44:31;;;;;;;0.57;0.57;;;;;;;;;;1851359;76;26334;-49
2022/08/24 09:47:00;;;;;;;1.40;0.50;;;;;;;;;;1855531;76;26275;-47
2022/08/24 09:49:44;;;;;;;1.07;0.60;;;;;;;;;;1860660;76;26277;-49
2022/08/24 09:52:30;;;;;;;0.45;0.42;;;;;;;;;;1851337;75;26283;-47
2022/08/24 09:55:03;;;;;;;0.60;0.60;;;;;;;;;;1861843;76;26348;-48
2022/08/24 09:57:44;;;;;;;0.60;0.60;;;;;;;;;;1864963;76;26276;-46
2022/08/24 10:00:13;;;;;;;0.60;0.60;;;;;;;;;;1857546;76;26256;-52
2022/08/24 10:03:00;;;;;;;1.05;0.70;;;;;;;;;;1862219;76;26327;-46
2022/08/24 10:05:29;;;;;;;3.92;0.70;;;;;;;;;;1862198;76;26241;-53
2022/08/24 10:08:02;;;;;;;1.27;0.50;;;;;;;;;;1856428;76;26319;-54
2022/08/24 10:10:33;;;;;;;0.40;0.40;;;;;;;;;;1817502;76;27778;-45
2022/08/24 10:13:21;;;;;;;0.50;0.50;;;;;;;;;;1864119;75;26715;-49
2022/08/24 10:15:49;;;;;;;0.70;0.65;;;;;;;;;;1874585;75;26768;-46
2022/08/24 10:18:19;;;;;;;2.37;0.60;;;;;;;;;;1843589;76;27197;-48
2022/08/24 10:20:51;;;;;;;0.50;0.50;;;;;;;;;;1872771;76;26265;-47
2022/08/24 10:23:38;;;;;;;1.45;0.55;;;;;;;;;;1851286;75;26221;-49
2022/08/24 10:26:15;;;;;;;3.25;0.50;;;;;;;;;;1867570;76;26283;-48
2022/08/24 10:28:44;;;;;;;0.50;0.50;;;;;;;;;;1848268;76;26313;-48
2022/08/24 10:31:13;;;;;;;0.62;0.62;;;;;;;;;;1851332;76;26280;-48
2022/08/24 10:33:48;;;;;;;0.60;0.60;;;;;;;;;;1845673;76;26335;-46
2022/08/24 10:36:16;;;;;;;0.60;0.60;;;;;;;;;;1872415;76;26262;-45
2022/08/24 10:41:42;;;;;;;4.33;0.78;;;;;;;;;;1868060;76;26321;-47
2022/08/24 10:44:21;;;;;;;0.95;0.60;;;;;;;;;;1868728;76;26266;-45
2022/08/24 10:46:50;;;;;;;0.80;0.80;;;;;;;;;;1863785;76;26276;-48
2022/08/24 10:49:22;;;;;;;0.70;0.70;;;;;;;;;;1859399;76;26362;-47
2022/08/24 10:51:51;;;;;;;0.60;0.60;;;;;;;;;;1873432;76;26811;-47
2022/08/24 10:54:19;;;;;;;0.65;0.65;;;;;;;;;;1857243;75;26260;-47
2022/08/24 10:56:50;;;;;;;0.80;0.80;;;;;;;;;;1852514;75;26308;-46
2022/08/24 10:59:19;;;;;;;0.68;0.68;;;;;;;;;;1852006;76;26276;-50
2022/08/24 11:02:00;;;;;;;0.80;0.80;;;;;;;;;;1864253;76;26328;-45
2022/08/24 11:04:32;;;;;;;0.80;0.80;;;;;;;;;;1858382;75;26748;-45
2022/08/24 11:07:06;;;;;;;0.70;0.70;;;;;;;;;;1849127;75;26726;-47
2022/08/24 11:09:44;;;;;;;1.47;0.80;;;;;;;;;;1855514;76;26371;-46
2022/08/24 11:12:22;;;;;;;0.70;0.70;;;;;;;;;;1877501;76;26326;-48
2022/08/24 11:14:50;;;;;;;0.65;0.65;;;;;;;;;;1877286;76;26289;-46
2022/08/24 11:17:19;;;;;;;0.70;0.70;;;;;;;;;;1874456;76;26284;-50
2022/08/24 11:19:48;;;;;;;0.68;0.68;;;;;;;;;;1861002;76;26247;-47
2022/08/24 11:22:19;;;;;;;0.70;0.70;;;;;;;;;;1867520;76;26304;-48
2022/08/24 11:24:48;;;;;;;0.70;0.70;;;;;;;;;;1859005;76;26245;-46
2022/08/24 11:27:20;;;;;;;0.60;0.60;;;;;;;;;;1875177;76;27251;-52
2022/08/24 11:29:53;;;;;;;0.65;0.60;;;;;;;;;;1861481;76;26320;-47
2022/08/24 11:32:40;;;;;;;0.60;0.60;;;;;;;;;;1865082;76;26281;-51
2022/08/24 11:35:24;;;;;;;0.57;0.57;;;;;;;;;;1860618;76;26278;-51
2022/08/24 11:37:53;;;;;;;0.62;0.60;;;;;;;;;;1859394;76;26250;-48
2022/08/24 11:40:24;;;;;;;1.27;0.50;;;;;;;;;;1859762;76;26397;-52
2022/08/24 11:42:53;;;;;;;0.50;0.45;;;;;;;;;;1857833;76;26357;-47
2022/08/24 11:45:33;;;;;;;0.40;0.40;;;;;;;;;;1863729;76;25710;-55
2022/08/24 11:48:02;;;;;;;0.50;0.50;;;;;;;;;;1861123;76;22976;-54
2022/08/24 11:50:37;;;;;;;0.50;0.50;;;;;;;;;;1862928;76;26292;-55
2022/08/24 11:53:06;;;;;;;0.50;0.50;;;;;;;;;;1856758;76;26355;-50
2022/08/24 11:55:41;;;;;;;0.50;0.50;;;;;;;;;;1859612;76;26284;-50
2022/08/24 11:58:13;;;;;;;0.50;0.50;;;;;;;;;;1855661;76;26763;-52
2022/08/24 12:00:45;;;;;;;0.55;0.55;;;;;;;;;;1860306;75;26335;-49
2022/08/24 12:03:26;;;;;;;0.47;0.47;;;;;;;;;;1865352;76;26256;-51
2022/08/24 12:06:04;;;;;;;0.33;0.33;;;;;;;;;;1852229;76;26268;-50
2022/08/24 12:08:45;;;;;;;0.68;0.68;;;;;;;;;;1865740;76;26256;-46
2022/08/24 12:11:17;;;;;;;1.35;0.57;;;;;;;;;;1856750;76;26697;-49
2022/08/24 12:13:49;;;;;;;0.40;0.40;;;;;;;;;;1852223;76;26276;-48
2022/08/24 12:16:18;;;;;;;0.53;0.53;;;;;;;;;;1870378;75;26265;-48
2022/08/24 12:18:58;;;;;;;1.85;0.50;;;;;;;;;;1876149;76;26241;-46
2022/08/24 12:21:28;;;;;;;0.88;0.50;;;;;;;;;;1872942;76;26713;-49
2022/08/24 12:24:01;;;;;;;0.50;0.50;;;;;;;;;;1858807;76;26342;-48
2022/08/24 12:26:30;;;;;;;0.50;0.50;;;;;;;;;;1878171;76;26321;-50
2022/08/24 12:29:02;;;;;;;0.50;0.50;;;;;;;;;;1853655;76;26341;-49
2022/08/24 12:31:47;;;;;;;0.60;0.60;;;;;;;;;;1818049;76;27508;-50
2022/08/24 12:34:16;;;;;;;0.35;0.35;;;;;;;;;;1852116;76;26794;-50
2022/08/24 12:36:45;;;;;;;0.40;0.40;;;;;;;;;;1869266;75;26257;-49
2022/08/24 12:39:14;;;;;;;0.40;0.40;;;;;;;;;;1852109;76;26268;-50
2022/08/24 12:41:43;;;;;;;0.40;0.40;;;;;;;;;;1858739;76;26608;-48
2022/08/24 12:44:12;;;;;;;0.40;0.40;;;;;;;;;;1862654;76;26209;-50
2022/08/24 12:46:41;;;;;;;0.37;0.37;;;;;;;;;;1867883;76;26557;-51
2022/08/24 12:49:13;;;;;;;0.35;0.35;;;;;;;;;;1870832;76;26259;-47
2022/08/24 12:51:51;;;;;;;0.40;0.40;;;;;;;;;;1855163;76;26826;-48
2022/08/24 12:54:37;;;;;;;0.40;0.40;;;;;;;;;;1867550;76;26347;-53
2022/08/24 12:57:09;;;;;;;0.40;0.40;;;;;;;;;;1863200;76;26245;-52
2022/08/24 12:59:44;;;;;;;0.30;0.30;;;;;;;;;;1859430;76;26532;-47
2022/08/24 13:02:12;;;;;;;0.57;0.40;;;;;;;;;;1870068;76;26300;-45
2022/08/24 13:04:41;;;;;;;0.50;0.50;;;;;;;;;;1862111;76;26261;-49
2022/08/24 13:07:10;;;;;;;0.50;0.50;;;;;;;;;;1864230;76;26269;-51
2022/08/24 13:09:45;;;;;;;0.35;0.35;;;;;;;;;;1864947;76;26292;-48
2022/08/24 13:12:20;;;;;;;0.95;0.42;;;;;;;;;;1832663;77;26276;-47
2022/08/24 13:14:49;;;;;;;0.40;0.40;;;;;;;;;;1828965;76;26747;-46
2022/08/24 13:17:18;;;;;;;0.50;0.50;;;;;;;;;;1840837;76;26776;-46
2022/08/24 13:19:46;;;;;;;0.42;0.42;;;;;;;;;;1808265;78;26275;-50
2022/08/24 13:22:15;;;;;;;0.85;0.45;;;;;;;;;;1813339;78;26265;-51
2022/08/24 13:24:44;;;;;;;10.30;0.60;;;;;;;;;;1856637;76;26780;-46
2022/08/24 13:27:14;;;;;;;0.98;0.50;;;;;;;;;;1858232;75;26755;-45
2022/08/24 13:29:45;;;;;;;0.37;0.37;;;;;;;;;;1868105;76;26343;-47
2022/08/24 13:32:18;;;;;;;2.45;0.40;;;;;;;;;;1851564;75;26253;-53
2022/08/24 13:34:46;;;;;;;0.50;0.50;;;;;;;;;;1859046;76;26261;-46
2022/08/24 13:37:21;;;;;;;0.40;0.40;;;;;;;;;;1855791;76;26264;-48
2022/08/24 13:39:55;;;;;;;0.35;0.35;;;;;;;;;;1854497;76;26266;-47
2022/08/24 13:42:30;;;;;;;0.70;0.40;;;;;;;;;;1854841;76;26684;-49
2022/08/24 13:45:04;;;;;;;0.50;0.50;;;;;;;;;;1861992;76;26288;-49
2022/08/24 13:47:35;;;;;;;0.45;0.45;;;;;;;;;;1863219;76;26307;-51
2022/08/24 13:50:13;;;;;;;0.50;0.50;;;;;;;;;;1851652;76;26268;-50
2022/08/24 13:52:46;;;;;;;0.50;0.50;;;;;;;;;;1853313;76;26261;-48
2022/08/24 13:55:21;;;;;;;0.62;0.62;;;;;;;;;;1852206;76;26284;-49
2022/08/24 13:57:53;;;;;;;0.50;0.50;;;;;;;;;;1858264;76;26794;-46
2022/08/24 14:00:40;;;;;;;0.40;0.40;;;;;;;;;;1854051;75;26254;-49
2022/08/24 14:03:16;;;;;;;0.42;0.42;;;;;;;;;;1858553;76;26268;-47
2022/08/24 14:05:51;;;;;;;0.50;0.50;;;;;;;;;;1855784;75;26276;-52
2022/08/24 14:08:35;;;;;;;0.42;0.42;;;;;;;;;;1857857;76;26559;-47
2022/08/24 14:11:04;;;;;;;0.40;0.40;;;;;;;;;;1850977;76;26295;-49
2022/08/24 14:13:33;;;;;;;0.40;0.40;;;;;;;;;;1863627;76;26277;-50
2022/08/24 14:18:51;;;;;;;0.40;0.40;;;;;;;;;;1859837;76;26711;-46
2022/08/24 14:21:20;;;;;;;0.85;0.60;;;;;;;;;;1854960;75;26846;-50
2022/08/24 14:23:55;;;;;;;0.47;0.47;;;;;;;;;;1860896;76;26721;-48
2022/08/24 14:26:23;;;;;;;0.40;0.40;;;;;;;;;;1856912;76;26284;-47
2022/08/24 14:28:51;;;;;;;0.40;0.40;;;;;;;;;;1844178;76;26303;-49
2022/08/24 14:31:20;;;;;;;1.40;0.55;;;;;;;;;;1870858;76;26704;-51
2022/08/24 14:33:55;;;;;;;0.30;0.30;;;;;;;;;;1859161;76;26265;-49
2022/08/24 14:36:23;;;;;;;1.25;0.40;;;;;;;;;;1862746;76;26375;-51
2022/08/24 14:38:52;;;;;;;1.57;0.60;;;;;;;;;;1855600;76;26275;-51
2022/08/24 14:41:30;;;;;;;5.50;0.50;;;;;;;;;;1854832;76;26268;-52
2022/08/24 14:44:11;;;;;;;3.80;0.50;;;;;;;;;;1867860;76;26719;-51
2022/08/24 14:46:46;;;;;;;9.00;0.70;;;;;;;;;;1866231;76;26795;-52
2022/08/24 14:49:15;;;;;;;3.10;0.50;;;;;;;;;;1863259;75;26300;-49
2022/08/24 14:52:00;;;;;;;4.53;0.60;;;;;;;;;;1874656;76;26291;-49
2022/08/24 14:54:35;;;;;;;0.50;0.50;;;;;;;;;;1870360;76;26316;-51
2022/08/24 14:57:10;;;;;;;0.90;0.50;;;;;;;;;;1871064;75;26336;-52
2022/08/24 14:59:57;;;;;;;1.47;0.45;;;;;;;;;;1878499;76;26269;-51
2022/08/24 15:02:36;;;;;;;0.85;0.47;;;;;;;;;;1865602;76;26322;-50
2022/08/24 15:05:07;;;;;;;0.53;0.53;;;;;;;;;;1864512;76;26282;-50
2022/08/24 15:07:36;;;;;;;0.60;0.60;;;;;;;;;;1864549;76;26327;-48
2022/08/24 15:10:05;;;;;;;0.53;0.53;;;;;;;;;;1871708;76;26286;-49
2022/08/24 15:12:37;;;;;;;0.85;0.47;;;;;;;;;;1853327;76;26347;-48
2022/08/24 15:15:09;;;;;;;1.00;0.70;;;;;;;;;;1851583;76;26345;-49